sensor_id;sensor_type;location;lat;lon;timestamp;pressure;altitude;pressure_sealevel;temperature;humidity
61039;BME280;46919;45.816;3.104;2022-10-17T00:00:45;98006.91;;;17.82;77.62
61039;BME280;46919;45.816;3.104;2022-10-17T00:03:11;98007.97;;;17.76;77.87
61039;BME280;46919;45.816;3.104;2022-10-17T00:05:41;98012.38;;;17.82;77.51
61039;BME280;46919;45.816;3.104;2022-10-17T00:08:08;98018.66;;;17.83;77.44
61039;BME280;46919;45.816;3.104;2022-10-17T00:10:34;98023.03;;;17.84;77.30
61039;BME280;46919;45.816;3.104;2022-10-17T00:12:59;98024.41;;;17.86;77.37
61039;BME280;46919;45.816;3.104;2022-10-17T00:15:24;98013.25;;;17.88;77.17
61039;BME280;46919;45.816;3.104;2022-10-17T00:17:50;98010.78;;;17.91;76.85
61039;BME280;46919;45.816;3.104;2022-10-17T00:20:16;98011.88;;;17.90;76.85
61039;BME280;46919;45.816;3.104;2022-10-17T00:22:42;98012.13;;;17.89;77.08
61039;BME280;46919;45.816;3.104;2022-10-17T00:25:07;98026.13;;;17.92;76.73
61039;BME280;46919;45.816;3.104;2022-10-17T00:27:34;98015.72;;;17.95;76.78
61039;BME280;46919;45.816;3.104;2022-10-17T00:30:00;98017.38;;;18.01;76.26
61039;BME280;46919;45.816;3.104;2022-10-17T00:32:26;98016.28;;;18.02;76.09
61039;BME280;46919;45.816;3.104;2022-10-17T00:34:51;98013.56;;;18.02;76.14
61039;BME280;46919;45.816;3.104;2022-10-17T00:37:16;98012.19;;;17.99;76.03
61039;BME280;46919;45.816;3.104;2022-10-17T00:39:42;98011.38;;;17.99;76.26
61039;BME280;46919;45.816;3.104;2022-10-17T00:42:11;98021.72;;;17.97;76.16
61039;BME280;46919;45.816;3.104;2022-10-17T00:45:12;98025.53;;;17.90;76.51
61039;BME280;46919;45.816;3.104;2022-10-17T00:47:39;98023.88;;;17.84;76.92
61039;BME280;46919;45.816;3.104;2022-10-17T00:50:05;98030.16;;;17.80;77.52
61039;BME280;46919;45.816;3.104;2022-10-17T00:52:31;98025.50;;;17.80;77.43
61039;BME280;46919;45.816;3.104;2022-10-17T00:55:08;98030.97;;;17.80;77.55
61039;BME280;46919;45.816;3.104;2022-10-17T00:57:37;98026.84;;;17.78;77.50
61039;BME280;46919;45.816;3.104;2022-10-17T01:00:06;98036.44;;;17.80;77.54
61039;BME280;46919;45.816;3.104;2022-10-17T01:02:32;98047.91;;;17.82;77.45
61039;BME280;46919;45.816;3.104;2022-10-17T01:04:58;98051.16;;;17.74;78.01
61039;BME280;46919;45.816;3.104;2022-10-17T01:07:24;98054.97;;;17.73;77.99
61039;BME280;46919;45.816;3.104;2022-10-17T01:09:50;98050.09;;;17.75;78.09
61039;BME280;46919;45.816;3.104;2022-10-17T01:12:34;98049.81;;;17.77;78.05
61039;BME280;46919;45.816;3.104;2022-10-17T01:23:26;98058.25;;;17.70;78.79
61039;BME280;46919;45.816;3.104;2022-10-17T01:31:36;98050.03;;;17.65;79.12
61039;BME280;46919;45.816;3.104;2022-10-17T01:36:51;98048.06;;;17.55;79.57
61039;BME280;46919;45.816;3.104;2022-10-17T01:39:45;98058.44;;;17.48;79.95
61039;BME280;46919;45.816;3.104;2022-10-17T01:42:29;98056.78;;;17.47;79.99
61039;BME280;46919;45.816;3.104;2022-10-17T01:47:32;98057.56;;;17.37;81.07
61039;BME280;46919;45.816;3.104;2022-10-17T01:50:09;98051.00;;;17.38;80.84
61039;BME280;46919;45.816;3.104;2022-10-17T01:52:49;98059.22;;;17.43;81.11
61039;BME280;46919;45.816;3.104;2022-10-17T01:55:22;98069.63;;;17.46;80.61
61039;BME280;46919;45.816;3.104;2022-10-17T01:57:54;98059.22;;;17.43;81.05
61039;BME280;46919;45.816;3.104;2022-10-17T02:00:23;98064.63;;;17.33;81.53
61039;BME280;46919;45.816;3.104;2022-10-17T02:03:02;98063.53;;;17.29;81.71
61039;BME280;46919;45.816;3.104;2022-10-17T02:05:33;98069.00;;;17.29;81.98
61039;BME280;46919;45.816;3.104;2022-10-17T02:08:00;98061.88;;;17.28;81.98
61039;BME280;46919;45.816;3.104;2022-10-17T02:13:19;98055.09;;;17.41;81.48
61039;BME280;46919;45.816;3.104;2022-10-17T02:21:22;98056.75;;;17.42;81.52
61039;BME280;46919;45.816;3.104;2022-10-17T02:24:14;98056.44;;;17.38;81.73
61039;BME280;46919;45.816;3.104;2022-10-17T02:29:57;98064.69;;;17.43;81.09
61039;BME280;46919;45.816;3.104;2022-10-17T02:35:08;98059.97;;;17.33;81.55
61039;BME280;46919;45.816;3.104;2022-10-17T02:37:35;98055.88;;;17.31;81.88
61039;BME280;46919;45.816;3.104;2022-10-17T02:40:02;98057.25;;;17.33;81.83
61039;BME280;46919;45.816;3.104;2022-10-17T02:42:29;98064.06;;;17.31;81.75
61039;BME280;46919;45.816;3.104;2022-10-17T02:44:59;98059.69;;;17.30;81.96
61039;BME280;46919;45.816;3.104;2022-10-17T02:47:26;98063.56;;;17.39;81.54
61039;BME280;46919;45.816;3.104;2022-10-17T02:49:56;98069.31;;;17.43;81.07
61039;BME280;46919;45.816;3.104;2022-10-17T02:52:27;98059.19;;;17.38;81.39
61039;BME280;46919;45.816;3.104;2022-10-17T02:54:59;98066.84;;;17.36;81.50
61039;BME280;46919;45.816;3.104;2022-10-17T02:57:59;98069.84;;;17.39;81.29
61039;BME280;46919;45.816;3.104;2022-10-17T03:00:27;98069.59;;;17.41;81.07
61039;BME280;46919;45.816;3.104;2022-10-17T03:02:54;98067.44;;;17.43;81.00
61039;BME280;46919;45.816;3.104;2022-10-17T03:05:22;98072.91;;;17.43;80.92
61039;BME280;46919;45.816;3.104;2022-10-17T03:07:48;98067.69;;;17.42;81.05
61039;BME280;46919;45.816;3.104;2022-10-17T03:10:14;98073.41;;;17.40;81.29
61039;BME280;46919;45.816;3.104;2022-10-17T03:12:39;98065.50;;;17.38;81.42
61039;BME280;46919;45.816;3.104;2022-10-17T03:15:05;98069.03;;;17.39;81.33
61039;BME280;46919;45.816;3.104;2022-10-17T03:17:31;98071.22;;;17.37;81.23
61039;BME280;46919;45.816;3.104;2022-10-17T03:19:56;98081.81;;;17.33;81.22
61039;BME280;46919;45.816;3.104;2022-10-17T03:22:22;98084.28;;;17.35;81.45
61039;BME280;46919;45.816;3.104;2022-10-17T03:24:47;98086.47;;;17.33;81.75
61039;BME280;46919;45.816;3.104;2022-10-17T03:27:12;98089.75;;;17.30;82.00
61039;BME280;46919;45.816;3.104;2022-10-17T03:29:38;98086.97;;;17.25;82.11
61039;BME280;46919;45.816;3.104;2022-10-17T03:32:03;98090.25;;;17.27;82.28
61039;BME280;46919;45.816;3.104;2022-10-17T03:34:29;98101.47;;;17.30;81.95
61039;BME280;46919;45.816;3.104;2022-10-17T03:36:54;98090.84;;;17.29;82.08
61039;BME280;46919;45.816;3.104;2022-10-17T03:39:20;98097.91;;;17.25;82.17
61039;BME280;46919;45.816;3.104;2022-10-17T03:41:45;98103.66;;;17.28;81.94
61039;BME280;46919;45.816;3.104;2022-10-17T03:44:11;98103.66;;;17.28;82.09
61039;BME280;46919;45.816;3.104;2022-10-17T03:46:36;98105.84;;;17.26;82.00
61039;BME280;46919;45.816;3.104;2022-10-17T03:49:01;98112.09;;;17.22;82.29
61039;BME280;46919;45.816;3.104;2022-10-17T03:51:27;98107.50;;;17.27;82.13
61039;BME280;46919;45.816;3.104;2022-10-17T03:53:52;98128.00;;;17.35;81.85
61039;BME280;46919;45.816;3.104;2022-10-17T03:56:20;98111.09;;;17.38;81.67
61039;BME280;46919;45.816;3.104;2022-10-17T03:58:46;98113.78;;;17.33;81.97
61039;BME280;46919;45.816;3.104;2022-10-17T04:01:13;98117.34;;;17.33;82.00
61039;BME280;46919;45.816;3.104;2022-10-17T04:03:38;98122.81;;;17.33;82.13
61039;BME280;46919;45.816;3.104;2022-10-17T04:06:04;98120.59;;;17.30;82.21
61039;BME280;46919;45.816;3.104;2022-10-17T04:08:30;98127.44;;;17.33;82.20
61039;BME280;46919;45.816;3.104;2022-10-17T04:10:59;98123.63;;;17.29;82.43
61039;BME280;46919;45.816;3.104;2022-10-17T04:13:25;98124.66;;;17.23;82.81
61039;BME280;46919;45.816;3.104;2022-10-17T04:15:55;98130.13;;;17.23;82.91
61039;BME280;46919;45.816;3.104;2022-10-17T04:18:21;98129.28;;;17.22;83.06
61039;BME280;46919;45.816;3.104;2022-10-17T04:20:46;98129.81;;;17.19;82.66
61039;BME280;46919;45.816;3.104;2022-10-17T04:23:12;98138.78;;;17.14;83.20
61039;BME280;46919;45.816;3.104;2022-10-17T04:25:37;98142.06;;;17.11;83.20
61039;BME280;46919;45.816;3.104;2022-10-17T04:28:02;98146.38;;;17.07;83.50
61039;BME280;46919;45.816;3.104;2022-10-17T04:30:28;98149.38;;;17.06;83.47
61039;BME280;46919;45.816;3.104;2022-10-17T04:32:53;98147.22;;;17.08;83.48
61039;BME280;46919;45.816;3.104;2022-10-17T04:35:19;98152.13;;;17.06;83.55
61039;BME280;46919;45.816;3.104;2022-10-17T04:37:44;98147.16;;;17.02;83.63
61039;BME280;46919;45.816;3.104;2022-10-17T04:40:10;98154.56;;;17.02;83.50
61039;BME280;46919;45.816;3.104;2022-10-17T04:42:35;98153.41;;;16.98;83.72
61039;BME280;46919;45.816;3.104;2022-10-17T04:45:01;98159.94;;;16.97;83.54
61039;BME280;46919;45.816;3.104;2022-10-17T04:47:26;98161.91;;;17.01;83.46
61039;BME280;46919;45.816;3.104;2022-10-17T04:49:51;98153.44;;;17.03;83.09
61039;BME280;46919;45.816;3.104;2022-10-17T04:52:17;98155.66;;;17.06;82.69
61039;BME280;46919;45.816;3.104;2022-10-17T04:54:42;98160.53;;;16.99;82.85
61039;BME280;46919;45.816;3.104;2022-10-17T04:57:08;98162.13;;;16.95;83.43
61039;BME280;46919;45.816;3.104;2022-10-17T04:59:33;98176.31;;;16.97;83.43
61039;BME280;46919;45.816;3.104;2022-10-17T05:01:59;98180.16;;;16.96;83.30
61039;BME280;46919;45.816;3.104;2022-10-17T05:04:24;98182.84;;;16.91;83.57
61039;BME280;46919;45.816;3.104;2022-10-17T05:06:51;98187.72;;;16.89;83.72
61039;BME280;46919;45.816;3.104;2022-10-17T05:09:16;98191.56;;;16.88;83.73
61039;BME280;46919;45.816;3.104;2022-10-17T05:11:42;98191.44;;;16.82;83.84
61039;BME280;46919;45.816;3.104;2022-10-17T05:14:07;98198.25;;;16.80;84.21
61039;BME280;46919;45.816;3.104;2022-10-17T05:16:33;98205.00;;;16.72;84.61
61039;BME280;46919;45.816;3.104;2022-10-17T05:19:00;98198.34;;;16.63;85.43
61039;BME280;46919;45.816;3.104;2022-10-17T05:21:27;98185.47;;;16.58;85.60
61039;BME280;46919;45.816;3.104;2022-10-17T05:23:53;98202.66;;;16.59;85.86
61039;BME280;46919;45.816;3.104;2022-10-17T05:26:20;98207.81;;;16.55;85.78
61039;BME280;46919;45.816;3.104;2022-10-17T05:28:45;98210.09;;;16.63;85.63
61039;BME280;46919;45.816;3.104;2022-10-17T05:31:11;98214.47;;;16.64;85.15
61039;BME280;46919;45.816;3.104;2022-10-17T05:33:37;98203.50;;;16.59;85.35
61039;BME280;46919;45.816;3.104;2022-10-17T05:36:04;98215.28;;;16.65;85.11
61039;BME280;46919;45.816;3.104;2022-10-17T05:38:30;98213.72;;;16.69;84.82
61039;BME280;46919;45.816;3.104;2022-10-17T05:40:59;98212.97;;;16.79;84.41
61039;BME280;46919;45.816;3.104;2022-10-17T05:43:25;98212.47;;;16.82;84.11
61039;BME280;46919;45.816;3.104;2022-10-17T05:45:51;98209.75;;;16.82;83.68
61039;BME280;46919;45.816;3.104;2022-10-17T05:48:16;98211.66;;;16.81;83.65
61039;BME280;46919;45.816;3.104;2022-10-17T05:50:41;98209.00;;;16.87;83.43
61039;BME280;46919;45.816;3.104;2022-10-17T05:53:07;98209.09;;;16.97;82.63
61039;BME280;46919;45.816;3.104;2022-10-17T05:55:32;98209.50;;;17.11;81.74
61039;BME280;46919;45.816;3.104;2022-10-17T05:58:01;98219.63;;;17.15;81.42
61039;BME280;46919;45.816;3.104;2022-10-17T06:00:27;98217.94;;;17.09;81.75
61039;BME280;46919;45.816;3.104;2022-10-17T06:02:52;98217.09;;;17.04;82.11
61039;BME280;46919;45.816;3.104;2022-10-17T06:05:18;98221.78;;;17.08;81.91
61039;BME280;46919;45.816;3.104;2022-10-17T06:07:44;98222.59;;;17.09;81.44
61039;BME280;46919;45.816;3.104;2022-10-17T06:10:10;98232.97;;;17.07;81.52
61039;BME280;46919;45.816;3.104;2022-10-17T06:12:41;98241.91;;;17.02;81.98
61039;BME280;46919;45.816;3.104;2022-10-17T06:15:07;98246.28;;;17.03;82.01
61039;BME280;46919;45.816;3.104;2022-10-17T06:17:33;98245.72;;;17.01;82.13
61039;BME280;46919;45.816;3.104;2022-10-17T06:19:59;98250.88;;;16.97;82.08
61039;BME280;46919;45.816;3.104;2022-10-17T06:22:24;98247.31;;;16.97;82.05
61039;BME280;46919;45.816;3.104;2022-10-17T06:24:49;98248.97;;;16.98;82.00
61039;BME280;46919;45.816;3.104;2022-10-17T06:27:16;98246.28;;;17.03;81.57
61039;BME280;46919;45.816;3.104;2022-10-17T06:29:42;98248.44;;;17.01;81.69
61039;BME280;46919;45.816;3.104;2022-10-17T06:32:07;98252.25;;;17.00;81.73
61039;BME280;46919;45.816;3.104;2022-10-17T06:34:32;98258.88;;;17.04;81.56
61039;BME280;46919;45.816;3.104;2022-10-17T06:36:58;98261.59;;;17.04;81.56
61039;BME280;46919;45.816;3.104;2022-10-17T06:39:23;98263.81;;;17.07;81.04
61039;BME280;46919;45.816;3.104;2022-10-17T06:41:51;98264.63;;;17.08;81.19
61039;BME280;46919;45.816;3.104;2022-10-17T06:44:16;98268.97;;;17.04;81.53
61039;BME280;46919;45.816;3.104;2022-10-17T06:46:42;98276.91;;;17.05;81.67
61039;BME280;46919;45.816;3.104;2022-10-17T06:49:08;98279.13;;;17.08;81.21
61039;BME280;46919;45.816;3.104;2022-10-17T06:51:35;98289.47;;;17.06;81.49
61039;BME280;46919;45.816;3.104;2022-10-17T06:54:01;98294.91;;;17.06;81.41
61039;BME280;46919;45.816;3.104;2022-10-17T06:56:26;98301.22;;;17.07;81.27
61039;BME280;46919;45.816;3.104;2022-10-17T06:58:52;98300.16;;;17.13;80.86
61039;BME280;46919;45.816;3.104;2022-10-17T07:01:19;98297.78;;;17.16;80.75
61039;BME280;46919;45.816;3.104;2022-10-17T07:03:46;98301.03;;;17.13;80.78
61039;BME280;46919;45.816;3.104;2022-10-17T07:06:12;98301.84;;;17.14;81.29
61039;BME280;46919;45.816;3.104;2022-10-17T07:08:42;98309.25;;;17.18;80.82
61039;BME280;46919;45.816;3.104;2022-10-17T07:11:16;98300.59;;;17.27;80.39
61039;BME280;46919;45.816;3.104;2022-10-17T07:13:42;98299.84;;;17.36;80.09
61039;BME280;46919;45.816;3.104;2022-10-17T07:16:09;98313.38;;;17.48;79.16
61039;BME280;46919;45.816;3.104;2022-10-17T07:18:34;98315.91;;;17.60;78.69
61039;BME280;46919;45.816;3.104;2022-10-17T07:21:00;98323.63;;;17.68;78.36
61039;BME280;46919;45.816;3.104;2022-10-17T07:23:25;98318.75;;;17.70;78.52
61039;BME280;46919;45.816;3.104;2022-10-17T07:25:51;98319.88;;;17.74;78.47
61039;BME280;46919;45.816;3.104;2022-10-17T07:28:17;98323.19;;;17.77;78.73
61039;BME280;46919;45.816;3.104;2022-10-17T07:30:42;98325.69;;;17.83;78.14
61039;BME280;46919;45.816;3.104;2022-10-17T07:33:08;98328.00;;;17.97;77.12
61039;BME280;46919;45.816;3.104;2022-10-17T07:35:33;98332.44;;;18.08;76.75
61039;BME280;46919;45.816;3.104;2022-10-17T07:37:59;98333.59;;;18.17;76.40
61039;BME280;46919;45.816;3.104;2022-10-17T07:40:24;98328.78;;;18.29;75.46
61039;BME280;46919;45.816;3.104;2022-10-17T07:42:49;98329.91;;;18.39;75.47
61039;BME280;46919;45.816;3.104;2022-10-17T07:45:15;98341.44;;;18.46;75.48
61039;BME280;46919;45.816;3.104;2022-10-17T07:47:41;98339.31;;;18.53;74.40
61039;BME280;46919;45.816;3.104;2022-10-17T07:50:07;98334.47;;;18.71;73.65
61039;BME280;46919;45.816;3.104;2022-10-17T07:52:32;98335.06;;;18.83;73.08
61039;BME280;46919;45.816;3.104;2022-10-17T07:54:58;98338.44;;;18.95;72.61
61039;BME280;46919;45.816;3.104;2022-10-17T07:57:23;98342.31;;;19.10;72.18
61039;BME280;46919;45.816;3.104;2022-10-17T07:59:49;98357.97;;;19.19;71.19
61039;BME280;46919;45.816;3.104;2022-10-17T08:02:23;98368.13;;;19.29;70.80
61039;BME280;46919;45.816;3.104;2022-10-17T08:04:49;98367.31;;;19.39;70.74
61039;BME280;46919;45.816;3.104;2022-10-17T08:07:15;98367.34;;;19.49;69.27
61039;BME280;46919;45.816;3.104;2022-10-17T08:09:41;98359.94;;;19.55;69.38
61039;BME280;46919;45.816;3.104;2022-10-17T08:12:06;98361.59;;;19.61;68.96
61039;BME280;46919;45.816;3.104;2022-10-17T08:14:32;98361.31;;;19.68;68.64
61039;BME280;46919;45.816;3.104;2022-10-17T08:16:57;98350.63;;;19.66;68.82
61039;BME280;46919;45.816;3.104;2022-10-17T08:19:23;98360.47;;;19.52;68.76
61039;BME280;46919;45.816;3.104;2022-10-17T08:21:48;98353.34;;;19.41;68.90
61039;BME280;46919;45.816;3.104;2022-10-17T08:24:14;98361.00;;;19.39;69.14
61039;BME280;46919;45.816;3.104;2022-10-17T08:26:40;98373.88;;;19.38;69.32
61039;BME280;46919;45.816;3.104;2022-10-17T08:29:05;98374.44;;;19.40;68.58
61039;BME280;46919;45.816;3.104;2022-10-17T08:31:35;98371.72;;;19.45;68.72
61039;BME280;46919;45.816;3.104;2022-10-17T08:34:00;98372.03;;;19.59;68.67
61039;BME280;46919;45.816;3.104;2022-10-17T08:36:26;98370.13;;;19.75;67.32
61039;BME280;46919;45.816;3.104;2022-10-17T08:38:53;98371.78;;;19.86;67.10
61039;BME280;46919;45.816;3.104;2022-10-17T08:44:13;98374.28;;;20.08;66.17
61039;BME280;46919;45.816;3.104;2022-10-17T08:46:46;98368.22;;;20.17;65.83
61039;BME280;46919;45.816;3.104;2022-10-17T08:49:29;98372.59;;;20.28;65.72
61039;BME280;46919;45.816;3.104;2022-10-17T08:52:02;98377.53;;;20.36;65.71
61039;BME280;46919;45.816;3.104;2022-10-17T08:54:40;98380.28;;;20.41;64.87
61039;BME280;46919;45.816;3.104;2022-10-17T08:57:11;98386.56;;;20.47;64.57
61039;BME280;46919;45.816;3.104;2022-10-17T08:59:37;98373.13;;;20.45;64.22
61039;BME280;46919;45.816;3.104;2022-10-17T09:02:27;98372.56;;;20.49;63.90
61039;BME280;46919;45.816;3.104;2022-10-17T09:07:39;98380.19;;;20.88;62.72
61039;BME280;46919;45.816;3.104;2022-10-17T09:10:22;98388.41;;;20.93;62.68
61039;BME280;46919;45.816;3.104;2022-10-17T09:13:10;98398.25;;;21.04;62.05
61039;BME280;46919;45.816;3.104;2022-10-17T09:18:35;98407.59;;;21.03;61.74
61039;BME280;46919;45.816;3.104;2022-10-17T09:24:02;98400.47;;;20.97;60.11
61039;BME280;46919;45.816;3.104;2022-10-17T09:26:29;98405.41;;;21.00;60.70
61039;BME280;46919;45.816;3.104;2022-10-17T09:28:56;98403.75;;;20.99;60.04
61039;BME280;46919;45.816;3.104;2022-10-17T09:31:32;98409.25;;;20.99;60.08
61039;BME280;46919;45.816;3.104;2022-10-17T09:34:01;98406.47;;;21.04;60.32
61039;BME280;46919;45.816;3.104;2022-10-17T09:36:32;98409.78;;;21.01;60.10
61039;BME280;46919;45.816;3.104;2022-10-17T09:39:18;98412.50;;;21.11;60.21
61039;BME280;46919;45.816;3.104;2022-10-17T09:41:57;98413.06;;;21.08;60.53
61039;BME280;46919;45.816;3.104;2022-10-17T09:44:34;98413.63;;;21.05;60.68
61039;BME280;46919;45.816;3.104;2022-10-17T09:49:47;98414.06;;;21.33;59.85
61039;BME280;46919;45.816;3.104;2022-10-17T09:52:34;98405.47;;;21.45;58.27
61039;BME280;46919;45.816;3.104;2022-10-17T09:58:03;98390.28;;;21.63;58.28
61039;BME280;46919;45.816;3.104;2022-10-17T10:00:38;98387.44;;;21.78;58.26
61039;BME280;46919;45.816;3.104;2022-10-17T10:03:17;98398.91;;;21.91;57.56
61039;BME280;46919;45.816;3.104;2022-10-17T10:06:05;98388.94;;;21.95;56.51
61039;BME280;46919;45.816;3.104;2022-10-17T10:08:47;98397.47;;;21.93;56.29
61039;BME280;46919;45.816;3.104;2022-10-17T10:11:14;98404.97;;;21.87;56.41
61039;BME280;46919;45.816;3.104;2022-10-17T10:13:40;98403.84;;;21.88;56.86
61039;BME280;46919;45.816;3.104;2022-10-17T10:16:33;98396.00;;;22.06;56.01
61039;BME280;46919;45.816;3.104;2022-10-17T10:19:19;98388.31;;;22.03;56.27
61039;BME280;46919;45.816;3.104;2022-10-17T10:22:19;98388.00;;;22.10;56.13
61039;BME280;46919;45.816;3.104;2022-10-17T10:24:45;98395.25;;;22.00;55.82
61039;BME280;46919;45.816;3.104;2022-10-17T10:27:15;98399.13;;;21.94;55.79
61039;BME280;46919;45.816;3.104;2022-10-17T10:29:42;98409.03;;;21.95;55.71
61039;BME280;46919;45.816;3.104;2022-10-17T10:32:20;98398.03;;;21.95;55.78
61039;BME280;46919;45.816;3.104;2022-10-17T10:37:18;98418.78;;;21.77;56.35
61039;BME280;46919;45.816;3.104;2022-10-17T10:42:20;98425.47;;;21.66;56.73
61039;BME280;46919;45.816;3.104;2022-10-17T10:44:46;98427.72;;;21.59;56.58
61039;BME280;46919;45.816;3.104;2022-10-17T10:47:23;98430.50;;;21.48;56.56
61039;BME280;46919;45.816;3.104;2022-10-17T10:49:52;98428.28;;;21.45;57.06
61039;BME280;46919;45.816;3.104;2022-10-17T10:52:37;98423.06;;;21.49;57.28
61039;BME280;46919;45.816;3.104;2022-10-17T10:55:23;98435.97;;;21.53;57.26
61039;BME280;46919;45.816;3.104;2022-10-17T10:57:53;98445.25;;;21.73;57.06
61039;BME280;46919;45.816;3.104;2022-10-17T11:00:23;98432.78;;;21.86;56.02
61039;BME280;46919;45.816;3.104;2022-10-17T11:05:19;98430.50;;;21.98;55.87
61039;BME280;46919;45.816;3.104;2022-10-17T11:10:47;98428.09;;;22.21;54.93
61039;BME280;46919;45.816;3.104;2022-10-17T11:13:21;98416.22;;;22.31;54.22
61039;BME280;46919;45.816;3.104;2022-10-17T11:15:54;98417.81;;;22.37;54.63
61039;BME280;46919;45.816;3.104;2022-10-17T11:21:47;98414.94;;;22.47;54.20
61039;BME280;46919;45.816;3.104;2022-10-17T11:25:38;98405.47;;;22.58;54.25
61039;BME280;46919;45.816;3.104;2022-10-17T11:27:33;98413.13;;;22.67;54.18
61039;BME280;46919;45.816;3.104;2022-10-17T11:29:58;98409.44;;;22.76;53.45
61039;BME280;46919;45.816;3.104;2022-10-17T11:32:33;98409.38;;;22.82;53.47
61039;BME280;46919;45.816;3.104;2022-10-17T11:35:31;98405.59;;;22.96;53.23
61039;BME280;46919;45.816;3.104;2022-10-17T11:40:37;98413.00;;;22.77;53.00
61039;BME280;46919;45.816;3.104;2022-10-17T11:43:23;98415.69;;;22.82;53.14
61039;BME280;46919;45.816;3.104;2022-10-17T11:45:55;98420.91;;;22.84;52.84
61039;BME280;46919;45.816;3.104;2022-10-17T11:48:34;98415.00;;;22.71;52.85
61039;BME280;46919;45.816;3.104;2022-10-17T11:51:07;98414.66;;;22.78;53.44
61039;BME280;46919;45.816;3.104;2022-10-17T11:54:29;98417.34;;;22.83;53.11
61039;BME280;46919;45.816;3.104;2022-10-17T12:12:55;98426.47;;;23.51;52.53
61039;BME280;46919;45.816;3.104;2022-10-17T12:18:00;98415.66;;;23.55;52.56
61039;BME280;46919;45.816;3.104;2022-10-17T12:20:34;98414.38;;;23.47;52.45
61039;BME280;46919;45.816;3.104;2022-10-17T12:26:00;98411.59;;;23.28;52.80
61039;BME280;46919;45.816;3.104;2022-10-17T12:31:09;98415.84;;;23.39;52.79
61039;BME280;46919;45.816;3.104;2022-10-17T12:33:37;98411.84;;;23.31;53.11
61039;BME280;46919;45.816;3.104;2022-10-17T12:38:42;98405.91;;;23.62;53.12
61039;BME280;46919;45.816;3.104;2022-10-17T12:41:07;98404.31;;;23.56;52.82
61039;BME280;46919;45.816;3.104;2022-10-17T12:43:36;98394.03;;;23.43;52.59
61039;BME280;46919;45.816;3.104;2022-10-17T12:46:07;98391.47;;;23.27;53.17
61039;BME280;46919;45.816;3.104;2022-10-17T12:56:38;98410.88;;;22.93;53.24
61039;BME280;46919;45.816;3.104;2022-10-17T13:01:38;98400.28;;;23.05;53.13
61039;BME280;46919;45.816;3.104;2022-10-17T13:04:08;98392.31;;;23.04;52.97
61039;BME280;46919;45.816;3.104;2022-10-17T13:06:39;98399.50;;;23.00;53.55
61039;BME280;46919;45.816;3.104;2022-10-17T13:11:58;98415.22;;;22.75;54.07
61039;BME280;46919;45.816;3.104;2022-10-17T13:14:25;98410.25;;;22.77;54.02
61039;BME280;46919;45.816;3.104;2022-10-17T13:17:00;98415.47;;;22.78;54.46
61039;BME280;46919;45.816;3.104;2022-10-17T13:19:30;98411.72;;;22.93;54.12
61039;BME280;46919;45.816;3.104;2022-10-17T13:21:57;98419.34;;;23.02;53.71
61039;BME280;46919;45.816;3.104;2022-10-17T13:24:39;98420.91;;;23.13;53.45
61039;BME280;46919;45.816;3.104;2022-10-17T13:27:21;98429.88;;;23.24;53.47
61039;BME280;46919;45.816;3.104;2022-10-17T13:29:47;98439.47;;;23.26;53.34
61039;BME280;46919;45.816;3.104;2022-10-17T13:32:12;98438.94;;;23.24;53.94
61039;BME280;46919;45.816;3.104;2022-10-17T13:34:38;98440.13;;;23.18;54.19
61039;BME280;46919;45.816;3.104;2022-10-17T13:37:05;98436.78;;;23.21;54.03
61039;BME280;46919;45.816;3.104;2022-10-17T13:39:38;98437.97;;;23.15;54.14
61039;BME280;46919;45.816;3.104;2022-10-17T13:42:04;98438.09;;;23.00;54.79
61039;BME280;46919;45.816;3.104;2022-10-17T13:44:34;98440.84;;;23.00;55.32
61039;BME280;46919;45.816;3.104;2022-10-17T13:47:00;98425.19;;;22.95;54.84
61039;BME280;46919;45.816;3.104;2022-10-17T13:49:41;98434.94;;;22.87;54.86
61039;BME280;46919;45.816;3.104;2022-10-17T13:52:19;98434.47;;;22.80;55.40
61039;BME280;46919;45.816;3.104;2022-10-17T13:54:48;98434.81;;;22.73;55.77
61039;BME280;46919;45.816;3.104;2022-10-17T13:57:19;98428.00;;;22.66;55.80
61039;BME280;46919;45.816;3.104;2022-10-17T13:59:48;98431.34;;;22.63;55.92
61039;BME280;46919;45.816;3.104;2022-10-17T14:02:19;98428.63;;;22.57;55.93
61039;BME280;46919;45.816;3.104;2022-10-17T14:04:45;98425.03;;;22.57;55.78
61039;BME280;46919;45.816;3.104;2022-10-17T14:07:27;98424.75;;;22.58;55.94
61039;BME280;46919;45.816;3.104;2022-10-17T14:09:55;98430.53;;;22.57;56.11
61039;BME280;46919;45.816;3.104;2022-10-17T14:12:21;98435.53;;;22.55;56.30
61039;BME280;46919;45.816;3.104;2022-10-17T14:14:50;98436.91;;;22.57;56.74
61039;BME280;46919;45.816;3.104;2022-10-17T14:17:27;98440.69;;;22.61;56.73
61039;BME280;46919;45.816;3.104;2022-10-17T14:19:56;98440.41;;;22.63;56.67
61039;BME280;46919;45.816;3.104;2022-10-17T14:24:48;98443.31;;;22.77;56.70
61039;BME280;46919;45.816;3.104;2022-10-17T14:27:30;98442.25;;;22.73;56.60
61039;BME280;46919;45.816;3.104;2022-10-17T14:30:00;98445.09;;;22.63;57.34
61039;BME280;46919;45.816;3.104;2022-10-17T14:32:31;98459.47;;;22.59;57.20
61039;BME280;46919;45.816;3.104;2022-10-17T14:34:59;98457.34;;;22.51;57.35
61039;BME280;46919;45.816;3.104;2022-10-17T14:37:40;98463.75;;;22.41;57.71
61039;BME280;46919;45.816;3.104;2022-10-17T14:42:42;98464.72;;;22.21;58.30
61039;BME280;46919;45.816;3.104;2022-10-17T14:45:14;98473.28;;;22.15;58.90
61039;BME280;46919;45.816;3.104;2022-10-17T14:47:40;98464.81;;;22.06;58.93
61039;BME280;46919;45.816;3.104;2022-10-17T14:50:20;98465.97;;;22.00;59.36
61039;BME280;46919;45.816;3.104;2022-10-17T14:53:04;98457.75;;;21.95;59.51
61039;BME280;46919;45.816;3.104;2022-10-17T14:55:32;98460.00;;;21.87;59.19
61039;BME280;46919;45.816;3.104;2022-10-17T14:57:58;98461.38;;;21.85;59.48
61039;BME280;46919;45.816;3.104;2022-10-17T15:00:24;98467.16;;;21.83;59.80
61039;BME280;46919;45.816;3.104;2022-10-17T15:02:51;98471.63;;;21.79;60.46
61039;BME280;46919;45.816;3.104;2022-10-17T15:05:17;98468.31;;;21.77;60.44